sensor_id;sensor_type;location;lat;lon;timestamp;temperature;humidity
79489;SHT31;68949;53.176;18.088;2023-03-31T00:00:16;9.69;84.46
79489;SHT31;68949;53.176;18.088;2023-03-31T00:03:03;9.67;84.54
79489;SHT31;68949;53.176;18.088;2023-03-31T00:05:35;9.65;84.63
79489;SHT31;68949;53.176;18.088;2023-03-31T00:08:03;9.60;84.80
79489;SHT31;68949;53.176;18.088;2023-03-31T00:10:30;9.57;84.70
79489;SHT31;68949;53.176;18.088;2023-03-31T00:12:59;9.54;84.70
79489;SHT31;68949;53.176;18.088;2023-03-31T00:15:27;9.52;84.68
79489;SHT31;68949;53.176;18.088;2023-03-31T00:17:54;9.52;84.58
79489;SHT31;68949;53.176;18.088;2023-03-31T00:20:25;9.51;84.75
79489;SHT31;68949;53.176;18.088;2023-03-31T00:22:52;9.47;85.03
79489;SHT31;68949;53.176;18.088;2023-03-31T00:25:19;9.45;85.16
79489;SHT31;68949;53.176;18.088;2023-03-31T00:27:46;9.42;85.22
79489;SHT31;68949;53.176;18.088;2023-03-31T00:30:15;9.43;85.07
79489;SHT31;68949;53.176;18.088;2023-03-31T00:32:42;9.41;85.41
79489;SHT31;68949;53.176;18.088;2023-03-31T00:35:09;9.39;85.30
79489;SHT31;68949;53.176;18.088;2023-03-31T00:37:36;9.38;85.33
79489;SHT31;68949;53.176;18.088;2023-03-31T00:40:03;9.38;85.67
79489;SHT31;68949;53.176;18.088;2023-03-31T00:42:41;9.39;85.67
79489;SHT31;68949;53.176;18.088;2023-03-31T00:47:39;9.40;85.96
79489;SHT31;68949;53.176;18.088;2023-03-31T00:50:23;9.42;86.14
79489;SHT31;68949;53.176;18.088;2023-03-31T00:52:55;9.40;85.99
79489;SHT31;68949;53.176;18.088;2023-03-31T00:55:30;9.44;86.06
79489;SHT31;68949;53.176;18.088;2023-03-31T00:58:03;9.47;86.00
79489;SHT31;68949;53.176;18.088;2023-03-31T01:00:33;9.48;86.01
79489;SHT31;68949;53.176;18.088;2023-03-31T01:03:01;9.51;85.99
79489;SHT31;68949;53.176;18.088;2023-03-31T01:05:42;9.52;85.90
79489;SHT31;68949;53.176;18.088;2023-03-31T01:08:13;9.52;86.02
79489;SHT31;68949;53.176;18.088;2023-03-31T01:10:47;9.52;85.98
79489;SHT31;68949;53.176;18.088;2023-03-31T01:13:19;9.56;85.63
79489;SHT31;68949;53.176;18.088;2023-03-31T01:15:47;9.58;85.51
79489;SHT31;68949;53.176;18.088;2023-03-31T01:18:14;9.59;85.56
79489;SHT31;68949;53.176;18.088;2023-03-31T01:26:55;9.65;85.61
79489;SHT31;68949;53.176;18.088;2023-03-31T01:44:28;9.49;87.45
79489;SHT31;68949;53.176;18.088;2023-03-31T01:47:37;9.48;87.66
79489;SHT31;68949;53.176;18.088;2023-03-31T01:50:34;9.48;87.28
79489;SHT31;68949;53.176;18.088;2023-03-31T01:58:38;9.46;88.04
79489;SHT31;68949;53.176;18.088;2023-03-31T02:01:19;9.43;87.87
79489;SHT31;68949;53.176;18.088;2023-03-31T02:03:57;9.40;88.15
79489;SHT31;68949;53.176;18.088;2023-03-31T02:06:34;9.37;88.09
79489;SHT31;68949;53.176;18.088;2023-03-31T02:09:11;9.34;87.82
79489;SHT31;68949;53.176;18.088;2023-03-31T02:11:44;9.31;87.50
79489;SHT31;68949;53.176;18.088;2023-03-31T02:14:16;9.30;86.66
79489;SHT31;68949;53.176;18.088;2023-03-31T02:16:51;9.27;86.46
79489;SHT31;68949;53.176;18.088;2023-03-31T02:19:24;9.29;86.32
79489;SHT31;68949;53.176;18.088;2023-03-31T02:21:57;9.30;86.24
79489;SHT31;68949;53.176;18.088;2023-03-31T02:24:26;9.29;86.43
79489;SHT31;68949;53.176;18.088;2023-03-31T02:29:33;9.21;86.32
79489;SHT31;68949;53.176;18.088;2023-03-31T02:32:05;9.19;86.32
79489;SHT31;68949;53.176;18.088;2023-03-31T02:34:41;9.14;86.58
79489;SHT31;68949;53.176;18.088;2023-03-31T02:37:08;9.08;86.66
79489;SHT31;68949;53.176;18.088;2023-03-31T02:39:36;9.03;86.63
79489;SHT31;68949;53.176;18.088;2023-03-31T02:42:06;9.01;86.20
79489;SHT31;68949;53.176;18.088;2023-03-31T02:44:35;8.96;85.87
79489;SHT31;68949;53.176;18.088;2023-03-31T02:47:08;8.87;85.67
79489;SHT31;68949;53.176;18.088;2023-03-31T02:49:40;8.80;85.61
79489;SHT31;68949;53.176;18.088;2023-03-31T02:52:19;8.74;86.38
79489;SHT31;68949;53.176;18.088;2023-03-31T02:55:09;8.69;86.92
79489;SHT31;68949;53.176;18.088;2023-03-31T03:01:05;8.56;87.02
79489;SHT31;68949;53.176;18.088;2023-03-31T03:09:48;8.44;87.36
79489;SHT31;68949;53.176;18.088;2023-03-31T03:15:25;8.37;86.52
79489;SHT31;68949;53.176;18.088;2023-03-31T03:18:09;8.32;86.54
79489;SHT31;68949;53.176;18.088;2023-03-31T03:20:37;8.27;86.30
79489;SHT31;68949;53.176;18.088;2023-03-31T03:23:04;8.25;86.42
79489;SHT31;68949;53.176;18.088;2023-03-31T03:25:31;8.21;86.62
79489;SHT31;68949;53.176;18.088;2023-03-31T03:27:59;8.15;86.69
79489;SHT31;68949;53.176;18.088;2023-03-31T03:30:26;8.10;86.77
79489;SHT31;68949;53.176;18.088;2023-03-31T03:32:52;8.06;86.96
79489;SHT31;68949;53.176;18.088;2023-03-31T03:35:21;8.05;87.07
79489;SHT31;68949;53.176;18.088;2023-03-31T03:37:47;8.04;87.54
79489;SHT31;68949;53.176;18.088;2023-03-31T03:40:14;8.06;87.89
79489;SHT31;68949;53.176;18.088;2023-03-31T03:42:41;8.07;87.56
79489;SHT31;68949;53.176;18.088;2023-03-31T03:45:08;8.07;87.93
79489;SHT31;68949;53.176;18.088;2023-03-31T03:47:36;8.06;87.68
79489;SHT31;68949;53.176;18.088;2023-03-31T03:50:03;8.07;87.76
79489;SHT31;68949;53.176;18.088;2023-03-31T03:52:30;8.09;87.54
79489;SHT31;68949;53.176;18.088;2023-03-31T03:54:57;8.09;87.89
79489;SHT31;68949;53.176;18.088;2023-03-31T03:57:24;8.10;87.83
79489;SHT31;68949;53.176;18.088;2023-03-31T03:59:51;8.09;88.14
79489;SHT31;68949;53.176;18.088;2023-03-31T04:02:18;8.08;88.27
79489;SHT31;68949;53.176;18.088;2023-03-31T04:04:45;8.07;88.19
79489;SHT31;68949;53.176;18.088;2023-03-31T04:07:11;8.09;87.64
79489;SHT31;68949;53.176;18.088;2023-03-31T04:09:38;8.10;87.35
79489;SHT31;68949;53.176;18.088;2023-03-31T04:12:04;8.09;87.37
79489;SHT31;68949;53.176;18.088;2023-03-31T04:14:31;8.07;87.16
79489;SHT31;68949;53.176;18.088;2023-03-31T04:16:58;8.09;86.98
79489;SHT31;68949;53.176;18.088;2023-03-31T04:19:24;8.13;86.67
79489;SHT31;68949;53.176;18.088;2023-03-31T04:21:52;8.15;86.49
79489;SHT31;68949;53.176;18.088;2023-03-31T04:24:28;8.12;86.45
79489;SHT31;68949;53.176;18.088;2023-03-31T04:26:58;8.08;86.44
79489;SHT31;68949;53.176;18.088;2023-03-31T04:29:28;8.02;86.59
79489;SHT31;68949;53.176;18.088;2023-03-31T04:31:58;7.96;86.62
79489;SHT31;68949;53.176;18.088;2023-03-31T04:34:26;7.89;86.65
79489;SHT31;68949;53.176;18.088;2023-03-31T04:37:00;7.87;86.72
79489;SHT31;68949;53.176;18.088;2023-03-31T04:39:28;7.85;86.68
79489;SHT31;68949;53.176;18.088;2023-03-31T04:41:57;7.87;86.81
79489;SHT31;68949;53.176;18.088;2023-03-31T04:44:26;7.84;86.78
79489;SHT31;68949;53.176;18.088;2023-03-31T04:46:54;7.84;86.95
79489;SHT31;68949;53.176;18.088;2023-03-31T04:49:22;7.83;87.17
79489;SHT31;68949;53.176;18.088;2023-03-31T04:51:48;7.84;87.38
79489;SHT31;68949;53.176;18.088;2023-03-31T04:54:15;7.87;87.41
79489;SHT31;68949;53.176;18.088;2023-03-31T04:56:42;7.90;87.88
79489;SHT31;68949;53.176;18.088;2023-03-31T04:59:09;7.90;88.00
79489;SHT31;68949;53.176;18.088;2023-03-31T05:01:36;7.91;87.84
79489;SHT31;68949;53.176;18.088;2023-03-31T05:04:03;7.93;87.72
79489;SHT31;68949;53.176;18.088;2023-03-31T05:06:31;7.96;87.63
79489;SHT31;68949;53.176;18.088;2023-03-31T05:08:58;8.01;87.58
79489;SHT31;68949;53.176;18.088;2023-03-31T05:11:25;8.04;87.59
79489;SHT31;68949;53.176;18.088;2023-03-31T05:13:54;8.06;87.58
79489;SHT31;68949;53.176;18.088;2023-03-31T05:16:20;8.09;87.38
79489;SHT31;68949;53.176;18.088;2023-03-31T05:18:47;8.12;87.43
79489;SHT31;68949;53.176;18.088;2023-03-31T05:21:17;8.13;87.46
79489;SHT31;68949;53.176;18.088;2023-03-31T05:23:46;8.14;87.62
79489;SHT31;68949;53.176;18.088;2023-03-31T05:26:14;8.16;87.43
79489;SHT31;68949;53.176;18.088;2023-03-31T05:28:41;8.20;87.69
79489;SHT31;68949;53.176;18.088;2023-03-31T05:31:08;8.23;87.71
79489;SHT31;68949;53.176;18.088;2023-03-31T05:33:37;8.25;87.85
79489;SHT31;68949;53.176;18.088;2023-03-31T05:36:07;8.27;87.80
79489;SHT31;68949;53.176;18.088;2023-03-31T05:38:41;8.30;87.89
79489;SHT31;68949;53.176;18.088;2023-03-31T05:41:09;8.32;88.02
79489;SHT31;68949;53.176;18.088;2023-03-31T05:43:37;8.37;88.00
79489;SHT31;68949;53.176;18.088;2023-03-31T05:46:04;8.42;88.23
79489;SHT31;68949;53.176;18.088;2023-03-31T05:48:32;8.44;88.31
79489;SHT31;68949;53.176;18.088;2023-03-31T05:51:00;8.49;88.12
79489;SHT31;68949;53.176;18.088;2023-03-31T05:53:28;8.52;88.36
79489;SHT31;68949;53.176;18.088;2023-03-31T05:55:56;8.56;88.29
79489;SHT31;68949;53.176;18.088;2023-03-31T05:58:28;8.61;88.58
79489;SHT31;68949;53.176;18.088;2023-03-31T06:00:59;8.66;88.67
79489;SHT31;68949;53.176;18.088;2023-03-31T06:03:36;8.68;88.84
79489;SHT31;68949;53.176;18.088;2023-03-31T06:06:07;8.72;88.94
79489;SHT31;68949;53.176;18.088;2023-03-31T06:08:35;8.74;88.83
79489;SHT31;68949;53.176;18.088;2023-03-31T06:11:06;8.77;88.80
79489;SHT31;68949;53.176;18.088;2023-03-31T06:13:37;8.81;88.80
79489;SHT31;68949;53.176;18.088;2023-03-31T06:16:05;8.85;88.65
79489;SHT31;68949;53.176;18.088;2023-03-31T06:18:34;8.88;88.88
79489;SHT31;68949;53.176;18.088;2023-03-31T06:21:02;8.91;88.88
79489;SHT31;68949;53.176;18.088;2023-03-31T06:23:29;8.93;88.90
79489;SHT31;68949;53.176;18.088;2023-03-31T06:26:01;8.95;88.97
79489;SHT31;68949;53.176;18.088;2023-03-31T06:28:32;9.01;88.87
79489;SHT31;68949;53.176;18.088;2023-03-31T06:33:29;9.11;88.72
79489;SHT31;68949;53.176;18.088;2023-03-31T06:35:57;9.15;88.59
79489;SHT31;68949;53.176;18.088;2023-03-31T06:38:26;9.20;88.63
79489;SHT31;68949;53.176;18.088;2023-03-31T06:40:53;9.22;88.50
79489;SHT31;68949;53.176;18.088;2023-03-31T06:43:20;9.28;88.45
79489;SHT31;68949;53.176;18.088;2023-03-31T06:45:47;9.32;88.46
79489;SHT31;68949;53.176;18.088;2023-03-31T06:48:14;9.37;88.32
79489;SHT31;68949;53.176;18.088;2023-03-31T06:50:41;9.41;88.11
79489;SHT31;68949;53.176;18.088;2023-03-31T06:53:08;9.44;87.99
79489;SHT31;68949;53.176;18.088;2023-03-31T06:55:36;9.50;88.00
79489;SHT31;68949;53.176;18.088;2023-03-31T06:58:03;9.57;87.97
79489;SHT31;68949;53.176;18.088;2023-03-31T07:00:31;9.63;87.78
79489;SHT31;68949;53.176;18.088;2023-03-31T07:02:59;9.67;87.66
79489;SHT31;68949;53.176;18.088;2023-03-31T07:05:27;9.69;87.47
79489;SHT31;68949;53.176;18.088;2023-03-31T07:07:54;9.73;87.10
79489;SHT31;68949;53.176;18.088;2023-03-31T07:10:24;9.79;87.05
79489;SHT31;68949;53.176;18.088;2023-03-31T07:12:54;9.86;86.73
79489;SHT31;68949;53.176;18.088;2023-03-31T07:15:21;9.94;86.73
79489;SHT31;68949;53.176;18.088;2023-03-31T07:17:50;10.01;86.77
79489;SHT31;68949;53.176;18.088;2023-03-31T07:20:28;10.03;86.29
79489;SHT31;68949;53.176;18.088;2023-03-31T07:22:56;10.04;86.31
79489;SHT31;68949;53.176;18.088;2023-03-31T07:25:22;10.05;86.38
79489;SHT31;68949;53.176;18.088;2023-03-31T07:27:49;10.11;86.13
79489;SHT31;68949;53.176;18.088;2023-03-31T07:30:17;10.15;86.12
79489;SHT31;68949;53.176;18.088;2023-03-31T07:32:46;10.18;85.74
79489;SHT31;68949;53.176;18.088;2023-03-31T07:35:16;10.20;85.68
79489;SHT31;68949;53.176;18.088;2023-03-31T07:37:45;10.22;85.60
79489;SHT31;68949;53.176;18.088;2023-03-31T07:40:17;10.28;85.54
79489;SHT31;68949;53.176;18.088;2023-03-31T07:42:48;10.35;85.66
79489;SHT31;68949;53.176;18.088;2023-03-31T07:45:18;10.36;85.00
79489;SHT31;68949;53.176;18.088;2023-03-31T07:47:48;10.37;85.03
79489;SHT31;68949;53.176;18.088;2023-03-31T07:50:15;10.38;85.09
79489;SHT31;68949;53.176;18.088;2023-03-31T07:52:44;10.40;85.22
79489;SHT31;68949;53.176;18.088;2023-03-31T07:55:12;10.47;85.27
79489;SHT31;68949;53.176;18.088;2023-03-31T07:57:41;10.50;84.56
79489;SHT31;68949;53.176;18.088;2023-03-31T08:00:09;10.53;84.41
79489;SHT31;68949;53.176;18.088;2023-03-31T08:02:40;10.57;84.44
79489;SHT31;68949;53.176;18.088;2023-03-31T08:05:11;10.59;84.05
79489;SHT31;68949;53.176;18.088;2023-03-31T08:07:43;10.64;84.36
79489;SHT31;68949;53.176;18.088;2023-03-31T08:10:14;10.69;83.94
79489;SHT31;68949;53.176;18.088;2023-03-31T08:12:45;10.74;83.77
79489;SHT31;68949;53.176;18.088;2023-03-31T08:15:13;10.78;83.80
79489;SHT31;68949;53.176;18.088;2023-03-31T08:17:40;10.83;83.73
79489;SHT31;68949;53.176;18.088;2023-03-31T08:20:07;10.87;83.80
79489;SHT31;68949;53.176;18.088;2023-03-31T08:22:36;10.91;83.36
79489;SHT31;68949;53.176;18.088;2023-03-31T08:25:05;10.96;83.18
79489;SHT31;68949;53.176;18.088;2023-03-31T08:27:34;10.99;83.06
79489;SHT31;68949;53.176;18.088;2023-03-31T08:30:03;11.03;83.17
79489;SHT31;68949;53.176;18.088;2023-03-31T08:32:33;11.09;83.19
79489;SHT31;68949;53.176;18.088;2023-03-31T08:35:01;11.15;82.38
79489;SHT31;68949;53.176;18.088;2023-03-31T08:37:29;11.18;82.32
79489;SHT31;68949;53.176;18.088;2023-03-31T08:39:56;11.23;82.38
79489;SHT31;68949;53.176;18.088;2023-03-31T08:45:26;11.30;82.05
79489;SHT31;68949;53.176;18.088;2023-03-31T08:48:08;11.40;82.18
79489;SHT31;68949;53.176;18.088;2023-03-31T08:51:13;11.43;80.97
79489;SHT31;68949;53.176;18.088;2023-03-31T08:53:46;11.44;80.92
79489;SHT31;68949;53.176;18.088;2023-03-31T08:56:21;11.44;81.20
79489;SHT31;68949;53.176;18.088;2023-03-31T08:58:49;11.47;81.37
79489;SHT31;68949;53.176;18.088;2023-03-31T09:18:38;11.61;80.47
79489;SHT31;68949;53.176;18.088;2023-03-31T09:21:31;11.65;80.04
79489;SHT31;68949;53.176;18.088;2023-03-31T09:24:10;11.71;80.09
79489;SHT31;68949;53.176;18.088;2023-03-31T09:27:00;11.80;80.08
79489;SHT31;68949;53.176;18.088;2023-03-31T09:34:52;12.05;79.90
79489;SHT31;68949;53.176;18.088;2023-03-31T09:37:24;12.14;80.31
79489;SHT31;68949;53.176;18.088;2023-03-31T09:39:56;12.21;79.50
79489;SHT31;68949;53.176;18.088;2023-03-31T09:42:27;12.20;77.80
79489;SHT31;68949;53.176;18.088;2023-03-31T09:44:54;12.22;79.03
79489;SHT31;68949;53.176;18.088;2023-03-31T09:47:28;12.33;79.63
79489;SHT31;68949;53.176;18.088;2023-03-31T09:50:05;12.40;78.52
79489;SHT31;68949;53.176;18.088;2023-03-31T09:52:34;12.41;78.09
79489;SHT31;68949;53.176;18.088;2023-03-31T09:55:51;12.44;78.20
79489;SHT31;68949;53.176;18.088;2023-03-31T09:58:11;12.45;77.26
79489;SHT31;68949;53.176;18.088;2023-03-31T10:00:43;12.44;76.10
79489;SHT31;68949;53.176;18.088;2023-03-31T10:03:25;12.48;76.50
79489;SHT31;68949;53.176;18.088;2023-03-31T10:05:55;12.57;77.50
79489;SHT31;68949;53.176;18.088;2023-03-31T10:08:30;12.68;77.44
79489;SHT31;68949;53.176;18.088;2023-03-31T10:13:35;12.97;75.26
79489;SHT31;68949;53.176;18.088;2023-03-31T10:16:11;13.09;74.90
79489;SHT31;68949;53.176;18.088;2023-03-31T10:18:46;13.19;74.82
79489;SHT31;68949;53.176;18.088;2023-03-31T10:21:25;13.24;73.77
79489;SHT31;68949;53.176;18.088;2023-03-31T10:24:00;13.24;73.93
79489;SHT31;68949;53.176;18.088;2023-03-31T10:26:34;13.31;75.01
79489;SHT31;68949;53.176;18.088;2023-03-31T10:29:02;13.34;74.17
79489;SHT31;68949;53.176;18.088;2023-03-31T10:31:38;13.33;74.39
79489;SHT31;68949;53.176;18.088;2023-03-31T10:34:06;13.32;73.48
79489;SHT31;68949;53.176;18.088;2023-03-31T10:36:46;13.30;72.71
79489;SHT31;68949;53.176;18.088;2023-03-31T10:39:17;13.29;72.83
79489;SHT31;68949;53.176;18.088;2023-03-31T10:41:51;13.29;73.00
79489;SHT31;68949;53.176;18.088;2023-03-31T10:44:37;13.36;73.67
79489;SHT31;68949;53.176;18.088;2023-03-31T10:47:26;13.39;72.93
79489;SHT31;68949;53.176;18.088;2023-03-31T10:49:55;13.36;72.92
79489;SHT31;68949;53.176;18.088;2023-03-31T10:52:23;13.34;73.70
79489;SHT31;68949;53.176;18.088;2023-03-31T10:54:57;13.31;74.06
79489;SHT31;68949;53.176;18.088;2023-03-31T10:57:30;13.29;73.73
79489;SHT31;68949;53.176;18.088;2023-03-31T11:00:32;13.27;73.16
79489;SHT31;68949;53.176;18.088;2023-03-31T11:08:51;13.37;73.98
79489;SHT31;68949;53.176;18.088;2023-03-31T11:11:57;13.40;73.12
79489;SHT31;68949;53.176;18.088;2023-03-31T11:20:07;13.48;70.73
79489;SHT31;68949;53.176;18.088;2023-03-31T11:23:05;13.53;70.86
79489;SHT31;68949;53.176;18.088;2023-03-31T11:25:44;13.60;70.91
79489;SHT31;68949;53.176;18.088;2023-03-31T11:32:45;13.86;70.83
79489;SHT31;68949;53.176;18.088;2023-03-31T11:41:04;14.15;67.46
79489;SHT31;68949;53.176;18.088;2023-03-31T11:43:46;14.22;67.40
79489;SHT31;68949;53.176;18.088;2023-03-31T11:46:26;14.31;67.13
79489;SHT31;68949;53.176;18.088;2023-03-31T11:49:23;14.40;65.08
79489;SHT31;68949;53.176;18.088;2023-03-31T11:52:15;14.43;65.04
79489;SHT31;68949;53.176;18.088;2023-03-31T11:55:02;14.39;65.57
79489;SHT31;68949;53.176;18.088;2023-03-31T11:57:45;14.43;66.80
79489;SHT31;68949;53.176;18.088;2023-03-31T12:00:35;14.48;66.92
79489;SHT31;68949;53.176;18.088;2023-03-31T12:06:15;14.53;68.48
79489;SHT31;68949;53.176;18.088;2023-03-31T12:08:53;14.56;66.98
79489;SHT31;68949;53.176;18.088;2023-03-31T12:11:55;14.55;66.76
79489;SHT31;68949;53.176;18.088;2023-03-31T12:14:49;14.49;65.59
79489;SHT31;68949;53.176;18.088;2023-03-31T12:17:39;14.43;65.68
79489;SHT31;68949;53.176;18.088;2023-03-31T12:20:13;14.37;65.42
79489;SHT31;68949;53.176;18.088;2023-03-31T12:22:52;14.39;66.25
79489;SHT31;68949;53.176;18.088;2023-03-31T12:25:21;14.43;66.66
79489;SHT31;68949;53.176;18.088;2023-03-31T12:27:48;14.47;67.34
79489;SHT31;68949;53.176;18.088;2023-03-31T12:30:28;14.50;65.02
79489;SHT31;68949;53.176;18.088;2023-03-31T12:39:05;14.44;65.28
79489;SHT31;68949;53.176;18.088;2023-03-31T12:57:26;14.28;64.63
79489;SHT31;68949;53.176;18.088;2023-03-31T13:02:50;14.30;64.96
79489;SHT31;68949;53.176;18.088;2023-03-31T13:11:33;14.43;64.74
79489;SHT31;68949;53.176;18.088;2023-03-31T13:14:06;14.44;64.11
79489;SHT31;68949;53.176;18.088;2023-03-31T13:16:46;14.46;64.84
79489;SHT31;68949;53.176;18.088;2023-03-31T13:22:02;14.44;63.52
79489;SHT31;68949;53.176;18.088;2023-03-31T13:24:31;14.43;63.91
79489;SHT31;68949;53.176;18.088;2023-03-31T13:30:03;14.44;64.67
79489;SHT31;68949;53.176;18.088;2023-03-31T13:33:03;14.47;64.77
79489;SHT31;68949;53.176;18.088;2023-03-31T13:35:36;14.48;64.35
79489;SHT31;68949;53.176;18.088;2023-03-31T13:41:16;14.52;64.24
79489;SHT31;68949;53.176;18.088;2023-03-31T13:44:14;14.47;63.48
79489;SHT31;68949;53.176;18.088;2023-03-31T13:47:46;14.44;65.05
79489;SHT31;68949;53.176;18.088;2023-03-31T13:50:36;14.40;65.49
79489;SHT31;68949;53.176;18.088;2023-03-31T13:59:43;14.59;65.83
79489;SHT31;68949;53.176;18.088;2023-03-31T14:02:52;14.65;65.57
79489;SHT31;68949;53.176;18.088;2023-03-31T14:09:00;14.74;66.64
79489;SHT31;68949;53.176;18.088;2023-03-31T14:11:33;14.80;65.77
79489;SHT31;68949;53.176;18.088;2023-03-31T14:14:06;14.81;64.81
79489;SHT31;68949;53.176;18.088;2023-03-31T14:22:10;14.98;64.82
79489;SHT31;68949;53.176;18.088;2023-03-31T14:39:40;15.20;62.85
79489;SHT31;68949;53.176;18.088;2023-03-31T14:42:12;15.22;62.32
79489;SHT31;68949;53.176;18.088;2023-03-31T14:44:44;15.22;62.14
79489;SHT31;68949;53.176;18.088;2023-03-31T14:47:20;15.22;62.50
79489;SHT31;68949;53.176;18.088;2023-03-31T14:50:10;15.22;62.63
79489;SHT31;68949;53.176;18.088;2023-03-31T14:52:48;15.24;63.14
79489;SHT31;68949;53.176;18.088;2023-03-31T14:55:21;15.25;63.21
79489;SHT31;68949;53.176;18.088;2023-03-31T14:57:51;15.25;63.43
79489;SHT31;68949;53.176;18.088;2023-03-31T15:00:26;15.25;63.51
79489;SHT31;68949;53.176;18.088;2023-03-31T15:02:57;15.23;63.63
79489;SHT31;68949;53.176;18.088;2023-03-31T15:05:29;15.20;63.77
79489;SHT31;68949;53.176;18.088;2023-03-31T15:08:02;15.15;63.64
79489;SHT31;68949;53.176;18.088;2023-03-31T15:10:37;15.11;63.86
79489;SHT31;68949;53.176;18.088;2023-03-31T15:13:08;15.08;63.51
79489;SHT31;68949;53.176;18.088;2023-03-31T15:15:41;15.03;63.44
79489;SHT31;68949;53.176;18.088;2023-03-31T15:18:11;14.95;64.77
79489;SHT31;68949;53.176;18.088;2023-03-31T15:20:41;14.81;64.45
79489;SHT31;68949;53.176;18.088;2023-03-31T15:23:26;14.59;65.49
79489;SHT31;68949;53.176;18.088;2023-03-31T15:25:57;14.30;66.29
79489;SHT31;68949;53.176;18.088;2023-03-31T15:28:46;14.02;67.89
79489;SHT31;68949;53.176;18.088;2023-03-31T15:31:20;13.81;69.35
79489;SHT31;68949;53.176;18.088;2023-03-31T15:33:47;13.65;70.15
79489;SHT31;68949;53.176;18.088;2023-03-31T15:36:14;13.53;70.45
79489;SHT31;68949;53.176;18.088;2023-03-31T15:38:41;13.47;71.16
79489;SHT31;68949;53.176;18.088;2023-03-31T15:41:12;13.43;71.47
79489;SHT31;68949;53.176;18.088;2023-03-31T15:43:49;13.38;70.90
79489;SHT31;68949;53.176;18.088;2023-03-31T15:49:05;13.34;70.98
79489;SHT31;68949;53.176;18.088;2023-03-31T15:51:49;13.36;71.16
79489;SHT31;68949;53.176;18.088;2023-03-31T15:54:27;13.48;70.82
79489;SHT31;68949;53.176;18.088;2023-03-31T15:57:01;13.64;70.02
79489;SHT31;68949;53.176;18.088;2023-03-31T15:59:43;13.67;69.73
79489;SHT31;68949;53.176;18.088;2023-03-31T16:02:19;13.84;69.01
79489;SHT31;68949;53.176;18.088;2023-03-31T16:04:53;13.97;68.89
79489;SHT31;68949;53.176;18.088;2023-03-31T16:07:24;13.94;68.92
79489;SHT31;68949;53.176;18.088;2023-03-31T16:10:02;13.88;68.90
79489;SHT31;68949;53.176;18.088;2023-03-31T16:13:06;13.81;69.26
79489;SHT31;68949;53.176;18.088;2023-03-31T16:15:41;13.71;69.05
79489;SHT31;68949;53.176;18.088;2023-03-31T16:18:14;13.65;69.48
79489;SHT31;68949;53.176;18.088;2023-03-31T16:20:49;13.63;69.50
79489;SHT31;68949;53.176;18.088;2023-03-31T16:23:25;13.60;69.62
79489;SHT31;68949;53.176;18.088;2023-03-31T16:25:55;13.58;69.74
79489;SHT31;68949;53.176;18.088;2023-03-31T16:28:23;13.58;69.50
79489;SHT31;68949;53.176;18.088;2023-03-31T16:30:55;13.59;69.42
79489;SHT31;68949;53.176;18.088;2023-03-31T16:33:30;13.59;69.27
79489;SHT31;68949;53.176;18.088;2023-03-31T16:36:18;13.58;69.04
79489;SHT31;68949;53.176;18.088;2023-03-31T16:38:45;13.57;69.00
79489;SHT31;68949;53.176;18.088;2023-03-31T16:41:12;13.54;69.13
79489;SHT31;68949;53.176;18.088;2023-03-31T16:43:43;13.52;69.53
79489;SHT31;68949;53.176;18.088;2023-03-31T16:46:11;13.48;69.93
79489;SHT31;68949;53.176;18.088;2023-03-31T16:48:38;13.44;70.14
79489;SHT31;68949;53.176;18.088;2023-03-31T16:51:05;13.38;70.41
79489;SHT31;68949;53.176;18.088;2023-03-31T16:53:32;13.31;70.74
79489;SHT31;68949;53.176;18.088;2023-03-31T16:56:01;13.24;70.66
79489;SHT31;68949;53.176;18.088;2023-03-31T16:58:30;13.18;70.45
79489;SHT31;68949;53.176;18.088;2023-03-31T17:00:57;13.11;70.64
79489;SHT31;68949;53.176;18.088;2023-03-31T17:03:23;13.06;70.63
79489;SHT31;68949;53.176;18.088;2023-03-31T17:05:52;13.01;70.75
79489;SHT31;68949;53.176;18.088;2023-03-31T17:08:22;12.99;70.69
79489;SHT31;68949;53.176;18.088;2023-03-31T17:11:00;12.99;70.75
79489;SHT31;68949;53.176;18.088;2023-03-31T17:13:33;12.98;70.95
79489;SHT31;68949;53.176;18.088;2023-03-31T17:16:00;12.95;70.81
79489;SHT31;68949;53.176;18.088;2023-03-31T17:18:27;12.92;70.77
79489;SHT31;68949;53.176;18.088;2023-03-31T17:20:53;12.91;70.69
79489;SHT31;68949;53.176;18.088;2023-03-31T17:23:21;12.89;70.72
79489;SHT31;68949;53.176;18.088;2023-03-31T17:25:48;12.88;70.80
79489;SHT31;68949;53.176;18.088;2023-03-31T17:28:17;12.85;70.76
79489;SHT31;68949;53.176;18.088;2023-03-31T17:30:45;12.84;70.93
79489;SHT31;68949;53.176;18.088;2023-03-31T17:33:14;12.85;70.87
79489;SHT31;68949;53.176;18.088;2023-03-31T17:35:41;12.88;71.03
79489;SHT31;68949;53.176;18.088;2023-03-31T17:38:09;12.91;70.96
79489;SHT31;68949;53.176;18.088;2023-03-31T17:40:38;12.92;70.48
79489;SHT31;68949;53.176;18.088;2023-03-31T17:43:05;12.91;70.39
79489;SHT31;68949;53.176;18.088;2023-03-31T17:45:32;12.91;70.29
79489;SHT31;68949;53.176;18.088;2023-03-31T17:48:00;12.94;70.61
79489;SHT31;68949;53.176;18.088;2023-03-31T17:50:26;12.94;70.88
79489;SHT31;68949;53.176;18.088;2023-03-31T17:52:53;12.93;71.03
79489;SHT31;68949;53.176;18.088;2023-03-31T17:55:20;12.92;71.25
79489;SHT31;68949;53.176;18.088;2023-03-31T17:57:48;12.88;71.51
79489;SHT31;68949;53.176;18.088;2023-03-31T18:00:14;12.85;71.80
79489;SHT31;68949;53.176;18.088;2023-03-31T18:02:42;12.84;71.93
79489;SHT31;68949;53.176;18.088;2023-03-31T18:05:09;12.79;72.02
79489;SHT31;68949;53.176;18.088;2023-03-31T18:07:37;12.80;72.16
79489;SHT31;68949;53.176;18.088;2023-03-31T18:10:04;12.78;72.23
79489;SHT31;68949;53.176;18.088;2023-03-31T18:12:32;12.80;72.19
79489;SHT31;68949;53.176;18.088;2023-03-31T18:15:02;12.82;71.81
79489;SHT31;68949;53.176;18.088;2023-03-31T18:17:32;12.73;71.15
79489;SHT31;68949;53.176;18.088;2023-03-31T18:19:59;12.63;70.91
79489;SHT31;68949;53.176;18.088;2023-03-31T18:22:25;12.51;71.33
79489;SHT31;68949;53.176;18.088;2023-03-31T18:24:52;12.37;71.60
79489;SHT31;68949;53.176;18.088;2023-03-31T18:27:19;12.27;71.86
79489;SHT31;68949;53.176;18.088;2023-03-31T18:29:46;12.26;72.19
79489;SHT31;68949;53.176;18.088;2023-03-31T18:32:13;12.22;72.07
79489;SHT31;68949;53.176;18.088;2023-03-31T18:34:41;12.19;71.87
79489;SHT31;68949;53.176;18.088;2023-03-31T18:37:08;12.16;72.09
79489;SHT31;68949;53.176;18.088;2023-03-31T18:39:34;12.11;72.08
79489;SHT31;68949;53.176;18.088;2023-03-31T18:42:01;12.05;72.42
79489;SHT31;68949;53.176;18.088;2023-03-31T18:44:28;11.99;72.62
79489;SHT31;68949;53.176;18.088;2023-03-31T18:46:55;11.95;72.91